createdAt,value
2017-08-31T00:00:09.706Z,22.45
2017-08-31T00:00:50.302Z,22.45
2017-08-31T00:01:30.916Z,22.39
2017-08-31T00:02:11.484Z,22.5
2017-08-31T00:02:52.048Z,22.38
2017-08-31T00:03:32.617Z,22.45
2017-08-31T00:04:13.189Z,22.48
2017-08-31T00:04:53.790Z,22.47
2017-08-31T00:05:34.372Z,22.45
2017-08-31T00:06:14.964Z,22.43
2017-08-31T00:06:55.529Z,22.43
2017-08-31T00:07:36.110Z,22.45
2017-08-31T00:08:16.684Z,22.44
2017-08-31T00:08:57.294Z,22.47
2017-08-31T00:09:37.877Z,22.43
2017-08-31T00:10:18.456Z,22.45
2017-08-31T00:10:59.028Z,22.44
2017-08-31T00:11:39.601Z,22.43
2017-08-31T00:12:20.179Z,22.44
2017-08-31T00:13:00.764Z,22.44
2017-08-31T00:13:41.334Z,22.51
2017-08-31T00:14:21.905Z,22.41
2017-08-31T00:15:02.498Z,22.43
2017-08-31T00:15:43.075Z,22.39
2017-08-31T00:16:23.662Z,22.48
2017-08-31T00:17:04.254Z,22.48
2017-08-31T00:17:44.825Z,22.44
2017-08-31T00:18:25.408Z,22.47
2017-08-31T00:19:05.988Z,22.43
2017-08-31T00:19:46.572Z,22.41
2017-08-31T00:20:27.150Z,22.44
2017-08-31T00:21:07.724Z,22.53
2017-08-31T00:21:48.328Z,22.47
2017-08-31T00:22:28.893Z,22.48
2017-08-31T00:23:09.458Z,22.51
2017-08-31T00:23:50.025Z,22.41
2017-08-31T00:24:30.601Z,22.5
2017-08-31T00:25:11.165Z,22.45
2017-08-31T00:25:51.739Z,22.44
2017-08-31T00:26:32.332Z,22.45
2017-08-31T00:27:12.931Z,22.38
2017-08-31T00:27:53.504Z,22.48
2017-08-31T00:28:34.080Z,22.47
2017-08-31T00:29:14.673Z,22.45
2017-08-31T00:29:55.251Z,22.45
2017-08-31T00:30:35.826Z,22.45
2017-08-31T00:31:16.437Z,22.41
2017-08-31T00:31:57.002Z,22.41
2017-08-31T00:32:37.566Z,22.39
2017-08-31T00:33:18.149Z,22.45
2017-08-31T00:33:58.727Z,22.48
2017-08-31T00:34:39.296Z,22.39
2017-08-31T00:35:19.897Z,22.43
2017-08-31T00:36:00.462Z,22.47
2017-08-31T00:36:41.069Z,22.44
2017-08-31T00:37:21.671Z,22.45
2017-08-31T00:38:02.254Z,22.41
2017-08-31T00:38:42.840Z,22.39
2017-08-31T00:39:23.408Z,22.43
2017-08-31T00:40:03.984Z,22.43
2017-08-31T00:40:44.552Z,22.38
2017-08-31T00:41:25.146Z,22.43
2017-08-31T00:42:05.722Z,22.43
2017-08-31T00:42:46.305Z,22.43
2017-08-31T00:43:26.875Z,22.44
2017-08-31T00:44:07.453Z,22.41
2017-08-31T00:44:48.033Z,22.36
2017-08-31T00:45:28.605Z,22.38
2017-08-31T00:46:09.174Z,22.47
2017-08-31T00:46:49.783Z,22.38
2017-08-31T00:47:30.371Z,22.48
2017-08-31T00:48:10.966Z,22.53
2017-08-31T00:48:51.558Z,22.38
2017-08-31T00:49:32.132Z,22.33
2017-08-31T00:50:12.702Z,22.35
2017-08-31T00:50:53.272Z,22.48
2017-08-31T00:51:33.837Z,22.41
2017-08-31T00:52:14.413Z,22.41
2017-08-31T00:52:54.997Z,22.38
2017-08-31T00:53:35.586Z,22.35
2017-08-31T00:54:16.150Z,22.38
2017-08-31T00:54:56.713Z,22.39
2017-08-31T00:55:37.292Z,22.39
2017-08-31T00:56:17.878Z,22.36
2017-08-31T00:56:58.444Z,22.32
2017-08-31T00:57:39.019Z,22.43
2017-08-31T00:58:19.594Z,22.45
2017-08-31T00:59:00.187Z,22.35
2017-08-31T00:59:40.760Z,22.33
2017-08-31T01:00:21.349Z,22.43
2017-08-31T01:01:01.939Z,22.41
2017-08-31T01:01:42.528Z,22.39
2017-08-31T01:02:23.103Z,22.41
2017-08-31T01:03:03.677Z,22.36
2017-08-31T01:03:44.263Z,22.47
2017-08-31T01:04:24.831Z,22.38
2017-08-31T01:05:05.398Z,22.45
2017-08-31T01:05:45.976Z,22.39
2017-08-31T01:06:26.563Z,22.36
2017-08-31T01:07:07.164Z,22.45
2017-08-31T01:07:47.752Z,22.45
2017-08-31T01:08:28.322Z,22.47
2017-08-31T01:09:08.907Z,22.47
2017-08-31T01:09:49.467Z,22.38
2017-08-31T01:10:30.060Z,22.47
2017-08-31T01:11:10.667Z,22.41
2017-08-31T01:11:51.266Z,22.45
2017-08-31T01:12:31.828Z,22.45
2017-08-31T01:13:12.406Z,22.43
2017-08-31T01:13:52.984Z,22.48
2017-08-31T01:14:33.561Z,22.44
2017-08-31T01:15:14.126Z,22.47
2017-08-31T01:15:54.706Z,22.5
2017-08-31T01:16:35.316Z,22.45
2017-08-31T01:17:15.889Z,22.43
2017-08-31T01:17:56.468Z,22.53
2017-08-31T01:18:37.040Z,22.5
2017-08-31T01:19:17.633Z,22.53
2017-08-31T01:19:58.216Z,22.48
2017-08-31T01:20:38.804Z,22.53
2017-08-31T01:21:19.380Z,22.48
2017-08-31T01:21:59.956Z,22.47
2017-08-31T01:22:40.538Z,22.47
2017-08-31T01:23:21.108Z,22.59
2017-08-31T01:24:01.687Z,22.55
2017-08-31T01:24:42.269Z,22.54
2017-08-31T01:25:22.846Z,22.53
2017-08-31T01:26:03.433Z,22.55
2017-08-31T01:26:44.003Z,22.57
2017-08-31T01:27:24.565Z,22.53
2017-08-31T01:28:05.150Z,22.62
2017-08-31T01:28:45.760Z,22.57
2017-08-31T01:29:26.336Z,22.53
2017-08-31T01:30:06.907Z,22.63
2017-08-31T01:30:47.466Z,22.51
2017-08-31T01:31:28.044Z,22.59
2017-08-31T01:32:08.641Z,22.54
2017-08-31T01:32:49.205Z,22.54
2017-08-31T01:33:29.787Z,22.53
2017-08-31T01:34:10.365Z,22.53
2017-08-31T01:34:50.945Z,22.57
2017-08-31T01:35:31.515Z,22.59
2017-08-31T01:36:12.081Z,22.53
2017-08-31T01:36:52.660Z,22.54
2017-08-31T01:37:33.266Z,22.59
2017-08-31T01:38:13.859Z,22.51
2017-08-31T01:38:54.425Z,22.48
2017-08-31T01:39:35.007Z,22.54
2017-08-31T01:40:15.581Z,22.51
2017-08-31T01:40:56.164Z,22.48
2017-08-31T01:41:36.736Z,22.54
2017-08-31T01:42:17.344Z,22.51
2017-08-31T01:42:57.918Z,22.47
2017-08-31T01:43:38.497Z,22.57
2017-08-31T01:44:19.061Z,22.43
2017-08-31T01:44:59.640Z,22.47
2017-08-31T01:45:40.215Z,22.48
2017-08-31T01:46:20.816Z,22.48
2017-08-31T01:47:01.404Z,22.51
2017-08-31T01:47:41.989Z,22.47
2017-08-31T01:48:22.556Z,22.47
2017-08-31T01:49:03.134Z,22.47
2017-08-31T01:49:43.695Z,22.45
2017-08-31T01:50:24.311Z,22.51
2017-08-31T01:51:04.880Z,22.51
2017-08-31T01:51:45.452Z,22.47
2017-08-31T01:52:26.076Z,22.55
2017-08-31T01:53:06.658Z,22.5
2017-08-31T01:53:47.232Z,22.41
2017-08-31T01:54:27.813Z,22.41
2017-08-31T01:55:08.446Z,22.54
2017-08-31T01:55:49.039Z,22.47
2017-08-31T01:56:29.611Z,22.53
2017-08-31T01:57:10.185Z,22.43
2017-08-31T01:57:50.754Z,22.43
2017-08-31T01:58:31.339Z,22.47
2017-08-31T01:59:11.914Z,22.53
2017-08-31T01:59:52.492Z,22.5
2017-08-31T02:00:33.077Z,22.53
2017-08-31T02:01:13.650Z,22.47
2017-08-31T02:01:54.268Z,22.55
2017-08-31T02:02:34.842Z,22.41
2017-08-31T02:03:15.438Z,22.47
2017-08-31T02:03:56.023Z,22.43
2017-08-31T02:04:36.613Z,22.44
2017-08-31T02:05:17.199Z,22.44
2017-08-31T02:05:57.774Z,22.45
2017-08-31T02:06:38.348Z,22.36
2017-08-31T02:07:18.912Z,22.45
2017-08-31T02:07:59.526Z,22.5
2017-08-31T02:08:40.103Z,22.45
2017-08-31T02:09:20.678Z,22.43
2017-08-31T02:10:01.245Z,22.45
2017-08-31T02:10:41.862Z,22.5
2017-08-31T02:11:22.451Z,22.48
2017-08-31T02:12:03.036Z,22.39
2017-08-31T02:12:43.602Z,22.43
2017-08-31T02:13:24.172Z,22.41
2017-08-31T02:14:04.740Z,22.47
2017-08-31T02:14:45.305Z,22.45
2017-08-31T02:15:25.884Z,22.45
2017-08-31T02:16:06.460Z,22.39
2017-08-31T02:16:47.028Z,22.41
2017-08-31T02:17:27.599Z,22.43
2017-08-31T02:18:08.164Z,22.41
2017-08-31T02:18:48.735Z,22.45
2017-08-31T02:19:29.303Z,22.5
2017-08-31T02:20:09.888Z,22.33
2017-08-31T02:20:50.500Z,22.43
2017-08-31T02:21:31.092Z,22.44
2017-08-31T02:22:11.680Z,22.38
2017-08-31T02:22:52.251Z,22.39
2017-08-31T02:23:32.828Z,22.39
2017-08-31T02:24:13.429Z,22.45
2017-08-31T02:24:54.006Z,22.43
2017-08-31T02:25:34.627Z,22.47
2017-08-31T02:26:15.209Z,22.43
2017-08-31T02:26:55.813Z,22.45
2017-08-31T02:27:36.379Z,22.35
2017-08-31T02:28:16.946Z,22.45
2017-08-31T02:28:57.561Z,22.47
2017-08-31T02:29:38.139Z,22.38
2017-08-31T02:30:18.730Z,22.35
2017-08-31T02:30:59.319Z,22.36
2017-08-31T02:31:39.878Z,22.36
2017-08-31T02:32:20.451Z,22.47
2017-08-31T02:33:01.038Z,22.39
2017-08-31T02:33:41.662Z,22.44
2017-08-31T02:34:22.210Z,22.38
2017-08-31T02:35:02.799Z,22.43
2017-08-31T02:35:43.366Z,22.43
2017-08-31T02:36:23.940Z,22.43
2017-08-31T02:37:04.545Z,22.44
2017-08-31T02:37:45.123Z,22.41
2017-08-31T02:38:25.738Z,22.5
2017-08-31T02:39:06.292Z,22.39
2017-08-31T02:39:46.887Z,22.43
2017-08-31T02:40:27.477Z,22.43
2017-08-31T02:41:08.049Z,22.43
2017-08-31T02:41:48.628Z,22.44
2017-08-31T02:42:29.184Z,22.53
2017-08-31T02:43:09.756Z,22.44
2017-08-31T02:43:50.336Z,22.38
2017-08-31T02:44:30.908Z,22.43
2017-08-31T02:45:11.522Z,22.45
2017-08-31T02:45:52.074Z,22.45
2017-08-31T02:46:32.692Z,22.41
2017-08-31T02:47:13.291Z,22.33
2017-08-31T02:47:53.892Z,22.44
2017-08-31T02:48:34.604Z,22.33
2017-08-31T02:49:15.173Z,22.43
2017-08-31T02:49:55.743Z,22.39
2017-08-31T02:50:36.309Z,22.43
2017-08-31T02:51:16.900Z,22.43
2017-08-31T02:51:57.512Z,22.39
2017-08-31T02:52:38.092Z,22.38
2017-08-31T02:53:18.674Z,22.43
2017-08-31T02:53:59.244Z,22.38
2017-08-31T02:54:39.821Z,22.43
2017-08-31T02:55:20.462Z,22.39
2017-08-31T02:56:01.052Z,22.43
2017-08-31T02:56:41.618Z,22.36
2017-08-31T02:57:22.247Z,22.43
2017-08-31T02:58:02.888Z,22.45
2017-08-31T02:58:43.478Z,22.36
2017-08-31T02:59:24.073Z,22.44
2017-08-31T03:00:04.661Z,22.39
2017-08-31T03:00:45.247Z,22.36
2017-08-31T03:01:25.818Z,22.35
2017-08-31T03:02:06.400Z,22.44
2017-08-31T03:02:46.960Z,22.36
2017-08-31T03:03:27.530Z,22.45
2017-08-31T03:04:08.097Z,22.45
2017-08-31T03:04:48.671Z,22.53
2017-08-31T03:05:29.254Z,22.45
2017-08-31T03:06:09.821Z,22.38
2017-08-31T03:06:50.386Z,22.48
2017-08-31T03:07:30.942Z,22.33
2017-08-31T03:08:11.535Z,22.47
2017-08-31T03:08:52.104Z,22.38
2017-08-31T03:09:32.672Z,22.43
2017-08-31T03:10:13.242Z,22.39
2017-08-31T03:10:53.814Z,22.43
2017-08-31T03:11:34.434Z,22.41
2017-08-31T03:12:15.002Z,22.36
2017-08-31T03:12:55.571Z,22.35
2017-08-31T03:13:36.144Z,22.44
2017-08-31T03:14:16.741Z,22.45
2017-08-31T03:14:57.335Z,22.47
2017-08-31T03:15:37.937Z,22.35
2017-08-31T03:16:18.517Z,22.48
2017-08-31T03:16:59.116Z,22.36
2017-08-31T03:17:39.674Z,22.33
2017-08-31T03:18:20.241Z,22.43
2017-08-31T03:19:00.820Z,22.39
2017-08-31T03:19:41.454Z,22.36
2017-08-31T03:20:22.031Z,22.36
2017-08-31T03:21:02.611Z,22.36
2017-08-31T03:21:43.223Z,22.41
2017-08-31T03:22:23.846Z,22.38
2017-08-31T03:23:04.423Z,22.32
2017-08-31T03:23:44.996Z,22.39
2017-08-31T03:24:25.589Z,22.39
2017-08-31T03:25:06.153Z,22.36
2017-08-31T03:25:46.738Z,22.38
2017-08-31T03:26:27.318Z,22.39
2017-08-31T03:27:07.878Z,22.35
2017-08-31T03:27:48.451Z,22.36
2017-08-31T03:28:29.027Z,22.38
2017-08-31T03:29:09.591Z,22.3
2017-08-31T03:29:50.210Z,22.36
2017-08-31T03:30:30.769Z,22.32
2017-08-31T03:31:11.385Z,22.29
2017-08-31T03:31:51.957Z,22.33
2017-08-31T03:32:32.549Z,22.39
2017-08-31T03:33:13.149Z,22.32
2017-08-31T03:33:53.715Z,22.29
2017-08-31T03:34:34.322Z,22.35
2017-08-31T03:35:14.918Z,22.3
2017-08-31T03:35:55.550Z,22.36
2017-08-31T03:36:36.143Z,22.28
2017-08-31T03:37:16.743Z,22.32
2017-08-31T03:37:57.324Z,22.39
2017-08-31T03:38:37.916Z,22.29
2017-08-31T03:39:18.498Z,22.3
2017-08-31T03:39:59.084Z,22.38
2017-08-31T03:40:39.692Z,22.32
2017-08-31T03:41:20.304Z,22.36
2017-08-31T03:42:00.888Z,22.32
2017-08-31T03:42:41.458Z,22.35
2017-08-31T03:43:22.033Z,22.28
2017-08-31T03:44:02.625Z,22.35
2017-08-31T03:44:43.227Z,22.33
2017-08-31T03:45:23.828Z,22.33
2017-08-31T03:46:04.402Z,22.38
2017-08-31T03:46:45.007Z,22.36
2017-08-31T03:47:25.609Z,22.35
2017-08-31T03:48:06.196Z,22.36
2017-08-31T03:48:46.808Z,22.29
2017-08-31T03:49:27.379Z,22.39
2017-08-31T03:50:07.951Z,22.3
2017-08-31T03:50:48.544Z,22.39
2017-08-31T03:51:29.133Z,22.35
2017-08-31T03:52:09.708Z,22.32
2017-08-31T03:52:50.348Z,22.38
2017-08-31T03:53:30.909Z,22.23
2017-08-31T03:54:11.502Z,22.38
2017-08-31T03:54:52.071Z,22.26
2017-08-31T03:55:32.635Z,22.39
2017-08-31T03:56:13.221Z,22.38
2017-08-31T03:56:53.796Z,22.25
2017-08-31T03:57:34.358Z,22.35
2017-08-31T03:58:14.931Z,22.35
2017-08-31T03:58:55.499Z,22.36
2017-08-31T03:59:36.067Z,22.23
2017-08-31T04:00:16.684Z,22.29
2017-08-31T04:00:57.275Z,22.29
2017-08-31T04:01:37.866Z,22.23
2017-08-31T04:02:18.451Z,22.33
2017-08-31T04:02:59.024Z,22.32
2017-08-31T04:03:39.598Z,22.26
2017-08-31T04:04:20.173Z,22.28
2017-08-31T04:05:00.745Z,22.35
2017-08-31T04:05:41.343Z,22.33
2017-08-31T04:06:21.896Z,22.35
2017-08-31T04:07:02.471Z,22.28
2017-08-31T04:07:43.037Z,22.28
2017-08-31T04:08:23.618Z,22.29
2017-08-31T04:09:04.184Z,22.33
2017-08-31T04:09:44.783Z,22.36
2017-08-31T04:10:25.415Z,22.23
2017-08-31T04:11:05.976Z,22.3
2017-08-31T04:11:46.567Z,22.36
2017-08-31T04:12:27.158Z,22.28
2017-08-31T04:13:07.733Z,22.3
2017-08-31T04:13:48.304Z,22.35
2017-08-31T04:14:28.926Z,22.23
2017-08-31T04:15:09.505Z,22.29
2017-08-31T04:15:50.083Z,22.28
2017-08-31T04:16:30.647Z,22.29
2017-08-31T04:17:11.243Z,22.25
2017-08-31T04:17:51.810Z,22.38
2017-08-31T04:18:32.384Z,22.26
2017-08-31T04:19:12.956Z,22.23
2017-08-31T04:19:53.572Z,22.23
2017-08-31T04:20:34.180Z,22.26
2017-08-31T04:21:14.746Z,22.26
2017-08-31T04:21:55.330Z,22.25
2017-08-31T04:22:35.901Z,22.26
2017-08-31T04:23:16.471Z,22.23
2017-08-31T04:23:57.044Z,22.2
2017-08-31T04:24:37.645Z,22.28
2017-08-31T04:25:18.236Z,22.18
2017-08-31T04:25:58.824Z,22.3
2017-08-31T04:26:39.384Z,22.2
2017-08-31T04:27:19.963Z,22.22
2017-08-31T04:28:00.579Z,22.25
2017-08-31T04:28:41.237Z,22.17
2017-08-31T04:29:21.783Z,22.18
2017-08-31T04:30:02.377Z,22.25
2017-08-31T04:30:42.950Z,22.26
2017-08-31T04:31:23.508Z,22.25
2017-08-31T04:32:04.076Z,22.23
2017-08-31T04:32:44.642Z,22.26
2017-08-31T04:33:25.223Z,22.25
2017-08-31T04:34:05.794Z,22.22
2017-08-31T04:34:46.376Z,22.25
2017-08-31T04:35:26.957Z,22.17
2017-08-31T04:36:07.536Z,22.26
2017-08-31T04:36:48.150Z,22.15
2017-08-31T04:37:28.740Z,22.23
2017-08-31T04:38:09.324Z,22.22
2017-08-31T04:38:49.922Z,22.18
2017-08-31T04:39:30.480Z,22.15
2017-08-31T04:40:11.081Z,22.23
2017-08-31T04:40:51.658Z,22.14
2017-08-31T04:41:32.249Z,22.18
2017-08-31T04:42:12.851Z,22.15
2017-08-31T04:42:53.413Z,22.14
2017-08-31T04:43:34.002Z,22.15
2017-08-31T04:44:14.567Z,22.15
2017-08-31T04:44:55.166Z,22.08
2017-08-31T04:45:35.731Z,22.14
2017-08-31T04:46:16.306Z,22.17
2017-08-31T04:46:56.884Z,22.17
2017-08-31T04:47:37.474Z,22.14
2017-08-31T04:48:18.051Z,22.17
2017-08-31T04:48:58.621Z,22.11
2017-08-31T04:49:39.217Z,22.1
2017-08-31T04:50:19.788Z,22.2
2017-08-31T04:51:00.401Z,22.17
2017-08-31T04:51:40.978Z,22.11
2017-08-31T04:52:21.547Z,22.07
2017-08-31T04:53:02.137Z,22.02
2017-08-31T04:53:42.722Z,22.18
2017-08-31T04:54:23.305Z,22.14
2017-08-31T04:55:03.935Z,22.13
2017-08-31T04:55:44.494Z,22.13
2017-08-31T04:56:25.074Z,22.14
2017-08-31T04:57:05.645Z,22.06
2017-08-31T04:57:46.211Z,22.07
2017-08-31T04:58:26.784Z,22.17
2017-08-31T04:59:07.367Z,22.15
2017-08-31T04:59:47.950Z,22.13
2017-08-31T05:00:28.526Z,22.1
2017-08-31T05:01:09.109Z,22.15
2017-08-31T05:01:49.673Z,22.08
2017-08-31T05:02:30.247Z,22.04
2017-08-31T05:03:10.844Z,22.07
2017-08-31T05:03:51.425Z,22.02
2017-08-31T05:04:31.999Z,22.13
2017-08-31T05:05:12.565Z,22.02
2017-08-31T05:05:53.147Z,22.04
2017-08-31T05:06:33.737Z,21.99
2017-08-31T05:07:14.306Z,22.1
2017-08-31T05:07:54.935Z,22.11
2017-08-31T05:08:35.552Z,22.14
2017-08-31T05:09:16.119Z,22.08
2017-08-31T05:09:56.693Z,22.11
2017-08-31T05:10:37.272Z,22.08
2017-08-31T05:11:17.853Z,22.23
2017-08-31T05:11:58.448Z,22.14
2017-08-31T05:12:39.017Z,22.07
2017-08-31T05:13:19.583Z,22.15
2017-08-31T05:14:00.171Z,22.13
2017-08-31T05:14:40.745Z,22.13
2017-08-31T05:15:21.338Z,22.15
2017-08-31T05:16:01.920Z,22.1
2017-08-31T05:16:42.499Z,22.15
2017-08-31T05:17:23.098Z,22.15
2017-08-31T05:18:03.678Z,22.14
2017-08-31T05:18:44.267Z,22.13
2017-08-31T05:19:24.855Z,22.18
2017-08-31T05:20:05.428Z,22.18
2017-08-31T05:20:46.012Z,22.17
2017-08-31T05:21:26.584Z,22.18
2017-08-31T05:22:07.154Z,22.14
2017-08-31T05:22:47.726Z,22.13
2017-08-31T05:23:28.307Z,22.08
2017-08-31T05:24:08.902Z,22.23
2017-08-31T05:24:49.477Z,22.11
2017-08-31T05:25:30.053Z,22.18
2017-08-31T05:26:10.632Z,22.17
2017-08-31T05:26:51.211Z,22.17
2017-08-31T05:27:31.786Z,22.17
2017-08-31T05:28:12.400Z,22.2
2017-08-31T05:28:52.964Z,22.18
2017-08-31T05:29:33.554Z,22.15
2017-08-31T05:30:14.131Z,22.11
2017-08-31T05:30:54.722Z,22.13
2017-08-31T05:31:35.294Z,22.11
2017-08-31T05:32:15.905Z,22.15
2017-08-31T05:32:56.483Z,22.18
2017-08-31T05:33:37.047Z,22.23
2017-08-31T05:34:17.639Z,22.13
2017-08-31T05:34:58.229Z,22.18
2017-08-31T05:35:38.801Z,22.13
2017-08-31T05:36:19.388Z,22.13
2017-08-31T05:36:59.969Z,22.2
2017-08-31T05:37:40.578Z,22.18
2017-08-31T05:38:21.140Z,22.15
2017-08-31T05:39:01.703Z,22.15
2017-08-31T05:39:42.283Z,22.14
2017-08-31T05:40:22.858Z,22.2
2017-08-31T05:41:03.449Z,22.23
2017-08-31T05:41:44.019Z,22.17
2017-08-31T05:42:24.614Z,22.11
2017-08-31T05:43:05.187Z,22.14
2017-08-31T05:43:45.770Z,22.22
2017-08-31T05:44:26.390Z,22.17
2017-08-31T05:45:07.018Z,22.18
2017-08-31T05:45:47.588Z,22.15
2017-08-31T05:46:28.162Z,22.23
2017-08-31T05:47:08.733Z,22.23
2017-08-31T05:47:49.334Z,22.2
2017-08-31T05:48:29.936Z,22.26
2017-08-31T05:49:10.510Z,22.28
2017-08-31T05:49:51.081Z,22.29
2017-08-31T05:50:31.656Z,22.26
2017-08-31T05:51:12.235Z,22.25
2017-08-31T05:51:52.818Z,22.22
2017-08-31T05:52:33.384Z,22.22
2017-08-31T05:53:13.979Z,22.18
2017-08-31T05:53:54.542Z,22.32
2017-08-31T05:54:35.123Z,22.22
2017-08-31T05:55:15.689Z,22.22
2017-08-31T05:55:56.255Z,22.26
2017-08-31T05:56:36.829Z,22.26
2017-08-31T05:57:17.403Z,22.3
2017-08-31T05:57:58.010Z,22.29
2017-08-31T05:58:38.566Z,22.3
2017-08-31T05:59:19.137Z,22.28
2017-08-31T05:59:59.732Z,22.29
2017-08-31T06:00:40.304Z,22.26
2017-08-31T06:01:20.875Z,22.28
2017-08-31T06:02:01.469Z,22.35
2017-08-31T06:02:42.061Z,22.35
2017-08-31T06:03:22.636Z,22.36
2017-08-31T06:04:03.263Z,22.33
2017-08-31T06:04:43.826Z,22.33
2017-08-31T06:05:24.418Z,22.35
2017-08-31T06:06:05.015Z,22.32
2017-08-31T06:06:45.593Z,22.29
2017-08-31T06:07:26.180Z,22.29
2017-08-31T06:08:06.777Z,22.25
2017-08-31T06:08:47.351Z,22.29
2017-08-31T06:09:27.938Z,22.39
2017-08-31T06:10:08.508Z,22.29
2017-08-31T06:10:49.084Z,22.33
2017-08-31T06:11:29.652Z,22.36
2017-08-31T06:12:10.223Z,22.33
2017-08-31T06:12:50.817Z,22.41
2017-08-31T06:13:31.366Z,22.39
2017-08-31T06:14:11.973Z,22.35
2017-08-31T06:14:52.557Z,22.44
2017-08-31T06:15:33.164Z,22.39
2017-08-31T06:16:13.737Z,22.43
2017-08-31T06:16:54.334Z,22.39
2017-08-31T06:17:34.926Z,22.43
2017-08-31T06:18:15.532Z,22.41
2017-08-31T06:18:56.120Z,22.44
2017-08-31T06:19:36.699Z,22.38
2017-08-31T06:20:17.296Z,22.47
2017-08-31T06:20:57.868Z,22.47
2017-08-31T06:21:38.454Z,22.47
2017-08-31T06:22:19.008Z,22.51
2017-08-31T06:22:59.582Z,22.53
2017-08-31T06:23:40.151Z,22.48
2017-08-31T06:24:20.737Z,22.57
2017-08-31T06:25:01.329Z,22.6
2017-08-31T06:25:41.952Z,22.59
2017-08-31T06:26:22.508Z,22.66
2017-08-31T06:27:03.107Z,22.63
2017-08-31T06:27:43.658Z,22.73
2017-08-31T06:28:24.251Z,22.78
2017-08-31T06:29:04.834Z,22.87
2017-08-31T06:29:45.419Z,22.88
2017-08-31T06:30:26.092Z,22.85
2017-08-31T06:31:06.643Z,23
2017-08-31T06:31:47.256Z,23.03
2017-08-31T06:32:27.824Z,23.13
2017-08-31T06:33:08.394Z,23.1
2017-08-31T06:33:49.029Z,23.17
2017-08-31T06:34:29.630Z,23.21
2017-08-31T06:35:10.197Z,23.2
2017-08-31T06:35:50.787Z,23.23
2017-08-31T06:36:31.359Z,23.23
2017-08-31T06:37:11.932Z,23.32
2017-08-31T06:37:52.542Z,23.31
2017-08-31T06:38:33.124Z,23.32
2017-08-31T06:39:13.697Z,23.25
2017-08-31T06:39:54.303Z,23.39
2017-08-31T06:40:34.899Z,23.34
2017-08-31T06:41:15.521Z,23.37
2017-08-31T06:41:56.110Z,23.36
2017-08-31T06:42:36.743Z,23.48
2017-08-31T06:43:17.309Z,23.54
2017-08-31T06:43:57.890Z,23.62
2017-08-31T06:44:38.468Z,23.74
2017-08-31T06:45:19.059Z,23.74
2017-08-31T06:45:59.642Z,23.73
2017-08-31T06:46:40.225Z,23.83
2017-08-31T06:47:20.823Z,23.8
2017-08-31T06:48:01.415Z,23.74
2017-08-31T06:48:41.993Z,23.69
2017-08-31T06:49:22.567Z,23.76
2017-08-31T06:50:03.144Z,23.69
2017-08-31T06:50:43.751Z,23.73
2017-08-31T06:51:24.337Z,23.66
2017-08-31T06:52:04.935Z,23.73
2017-08-31T06:52:45.521Z,23.69
2017-08-31T06:53:26.121Z,23.66
2017-08-31T06:54:06.708Z,23.68
2017-08-31T06:54:47.303Z,23.71
2017-08-31T06:55:27.913Z,23.78
2017-08-31T06:56:08.483Z,23.8
2017-08-31T06:56:49.077Z,23.86
2017-08-31T06:57:29.644Z,23.99
2017-08-31T06:58:10.222Z,23.99
2017-08-31T06:58:50.807Z,24.1
2017-08-31T06:59:31.380Z,24.14
2017-08-31T07:00:11.952Z,24.26
2017-08-31T07:00:52.525Z,24.32
2017-08-31T07:01:33.111Z,24.45
2017-08-31T07:02:13.687Z,24.57
2017-08-31T07:02:54.255Z,24.51
2017-08-31T07:03:34.841Z,24.61
2017-08-31T07:04:15.420Z,24.58
2017-08-31T07:04:56.008Z,24.6
2017-08-31T07:05:36.588Z,24.57
2017-08-31T07:06:17.151Z,24.66
2017-08-31T07:06:57.757Z,24.73
2017-08-31T07:07:38.356Z,24.8
2017-08-31T07:08:18.944Z,24.84
2017-08-31T07:08:59.529Z,24.86
2017-08-31T07:09:40.103Z,24.84
2017-08-31T07:10:20.696Z,24.91
2017-08-31T07:11:01.288Z,24.99
2017-08-31T07:11:41.881Z,25.06
2017-08-31T07:12:22.464Z,24.99
2017-08-31T07:13:03.039Z,25.08
2017-08-31T07:13:43.614Z,25.11
2017-08-31T07:14:24.196Z,25.22
2017-08-31T07:15:04.776Z,25.28
2017-08-31T07:15:45.349Z,25.33
2017-08-31T07:16:25.945Z,25.41
2017-08-31T07:17:06.530Z,25.4
2017-08-31T07:17:47.127Z,25.53
2017-08-31T07:18:27.699Z,25.51
2017-08-31T07:19:08.269Z,25.53
2017-08-31T07:19:48.850Z,25.73
2017-08-31T07:20:29.429Z,25.68
2017-08-31T07:21:10.020Z,25.68
2017-08-31T07:21:50.629Z,25.83
2017-08-31T07:22:31.205Z,25.85
2017-08-31T07:23:11.792Z,26.03
2017-08-31T07:23:52.417Z,26.06
2017-08-31T07:24:33.018Z,26.16
2017-08-31T07:25:13.586Z,26.16
2017-08-31T07:25:54.161Z,26.28
2017-08-31T07:26:34.733Z,26.44
2017-08-31T07:27:15.296Z,26.43
2017-08-31T07:27:55.911Z,26.56
2017-08-31T07:28:36.503Z,26.65
2017-08-31T07:29:17.097Z,26.7
2017-08-31T07:29:57.706Z,26.83
2017-08-31T07:30:38.277Z,26.93
2017-08-31T07:31:18.854Z,26.93
2017-08-31T07:31:59.439Z,27.03
2017-08-31T07:32:40.027Z,27.1
2017-08-31T07:33:20.604Z,27.17
2017-08-31T07:34:01.217Z,27.25
2017-08-31T07:34:41.816Z,27.25
2017-08-31T07:35:22.406Z,27.36
2017-08-31T07:36:02.979Z,27.33
2017-08-31T07:36:43.554Z,27.32
2017-08-31T07:37:24.151Z,27.44
2017-08-31T07:38:04.724Z,27.51
2017-08-31T07:38:45.306Z,27.55
2017-08-31T07:39:25.917Z,27.6
2017-08-31T07:40:06.489Z,27.55
2017-08-31T07:40:47.130Z,27.6
2017-08-31T07:41:27.701Z,27.67
2017-08-31T07:42:08.296Z,27.68
2017-08-31T07:42:48.880Z,27.67
2017-08-31T07:43:29.446Z,27.63
2017-08-31T07:44:10.053Z,27.54
2017-08-31T07:44:50.624Z,27.67
2017-08-31T07:45:31.246Z,27.7
2017-08-31T07:46:11.842Z,27.68
2017-08-31T07:46:52.450Z,27.65
2017-08-31T07:47:33.040Z,27.75
2017-08-31T07:48:13.624Z,27.75
2017-08-31T07:48:54.205Z,27.78
2017-08-31T07:49:34.811Z,27.75
2017-08-31T07:50:15.388Z,27.89
2017-08-31T07:50:55.999Z,27.85
2017-08-31T07:51:36.582Z,27.87
2017-08-31T07:52:17.178Z,28
2017-08-31T07:52:57.755Z,28
2017-08-31T07:53:38.344Z,28.05
2017-08-31T07:54:18.975Z,28.12
2017-08-31T07:54:59.547Z,28.15
2017-08-31T07:55:40.117Z,28.14
2017-08-31T07:56:20.746Z,28.3
2017-08-31T07:57:01.325Z,28.26
2017-08-31T07:57:41.930Z,28.35
2017-08-31T07:58:22.535Z,28.3
2017-08-31T07:59:03.119Z,28.38
2017-08-31T07:59:43.706Z,28.48
2017-08-31T08:00:24.285Z,28.48
2017-08-31T08:01:04.895Z,28.48
2017-08-31T08:01:45.484Z,28.51
2017-08-31T08:02:26.056Z,28.63
2017-08-31T08:03:06.643Z,28.48
2017-08-31T08:03:47.220Z,28.62
2017-08-31T08:04:27.805Z,28.59
2017-08-31T08:05:08.398Z,28.63
2017-08-31T08:05:48.986Z,28.52
2017-08-31T08:06:29.565Z,28.56
2017-08-31T08:07:10.157Z,28.52
2017-08-31T08:07:50.769Z,28.56
2017-08-31T08:08:31.377Z,28.51
2017-08-31T08:09:11.960Z,28.48
2017-08-31T08:09:52.546Z,28.52
2017-08-31T08:10:33.133Z,28.45
2017-08-31T08:11:13.722Z,28.45
2017-08-31T08:11:54.394Z,28.38
2017-08-31T08:12:35.026Z,28.37
2017-08-31T08:13:15.627Z,28.38
2017-08-31T08:13:56.290Z,28.39
2017-08-31T08:14:36.898Z,28.48
2017-08-31T08:15:17.458Z,28.45
2017-08-31T08:15:58.041Z,28.45
2017-08-31T08:16:38.638Z,28.41
2017-08-31T08:17:19.215Z,28.42
2017-08-31T08:17:59.819Z,28.33
2017-08-31T08:18:40.391Z,28.33
2017-08-31T08:19:20.969Z,28.26
2017-08-31T08:20:01.567Z,28.23
2017-08-31T08:20:42.181Z,28.3
2017-08-31T08:21:22.755Z,28.27
2017-08-31T08:22:03.334Z,28.27
2017-08-31T08:22:43.913Z,28.22
2017-08-31T08:23:24.513Z,28.25
2017-08-31T08:24:05.096Z,28.23
2017-08-31T08:24:45.677Z,28.22
2017-08-31T08:25:26.263Z,28.23
2017-08-31T08:26:06.858Z,28.14
2017-08-31T08:26:47.422Z,28.15
2017-08-31T08:27:28.008Z,28.12
2017-08-31T08:28:08.610Z,28.27
2017-08-31T08:28:49.185Z,28.3
2017-08-31T08:29:29.771Z,28.27
2017-08-31T08:30:10.352Z,28.33
2017-08-31T08:30:50.944Z,28.41
2017-08-31T08:31:31.510Z,28.45
2017-08-31T08:32:12.118Z,28.42
2017-08-31T08:32:52.702Z,28.48
2017-08-31T08:33:33.281Z,28.45
2017-08-31T08:34:13.868Z,28.42
2017-08-31T08:34:54.461Z,28.48
2017-08-31T08:35:35.044Z,28.48
2017-08-31T08:36:15.641Z,28.52
2017-08-31T08:36:56.224Z,28.44
2017-08-31T08:37:36.819Z,28.45
2017-08-31T08:38:17.428Z,28.49
2017-08-31T08:38:58.016Z,28.32
2017-08-31T08:39:38.606Z,28.29
2017-08-31T08:40:19.193Z,28.29
2017-08-31T08:40:59.826Z,28.22
2017-08-31T08:41:40.503Z,28.23
2017-08-31T08:42:21.088Z,28.27
2017-08-31T08:43:01.689Z,28.25
2017-08-31T08:43:42.266Z,28.25